Time;durP1;ratioP1;P1;durP2;ratioP2;P2;SDS_P1;SDS_P2;PMS_P1;PMS_P2;Temp;Humidity;BMP_temperature;BMP_pressure;BME280_temperature;BME280_humidity;BME280_pressure;Samples;Min_cycle;Max_cycle;Signal;HPM_P1;HPM_P2
2022/11/06 00:01:08;;;;;;;14.75;6.55;;;;;;;5.11;85.47;101516.80;1698416;84;21513;-85
2022/11/06 00:03:35;;;;;;;15.38;6.17;;;;;;;5.09;85.41;101514.89;1690186;84;21015;-86
2022/11/06 00:08:58;;;;;;;18.17;6.85;;;;;;;5.04;85.38;101519.84;1687053;84;21153;-84
2022/11/06 00:11:29;;;;;;;13.13;6.20;;;;;;;5.03;85.33;101525.86;1676280;83;20996;-84
2022/11/06 00:13:58;;;;;;;13.10;5.90;;;;;;;4.97;85.35;101522.48;1690578;84;21035;-85
2022/11/06 00:16:24;;;;;;;17.05;7.25;;;;;;;4.97;85.32;101530.72;1678495;84;21507;-85
2022/11/06 00:18:51;;;;;;;13.83;7.40;;;;;;;4.94;85.32;101525.34;1678559;85;22408;-86
2022/11/06 00:21:22;;;;;;;13.18;6.75;;;;;;;4.91;85.35;101525.15;1678512;84;20883;-87
2022/11/06 00:23:50;;;;;;;15.05;6.72;;;;;;;4.91;85.37;101531.66;1678693;85;20979;-84
2022/11/06 00:26:23;;;;;;;13.00;6.50;;;;;;;4.87;85.42;101527.56;1678619;85;21035;-84
2022/11/06 00:28:50;;;;;;;14.80;6.45;;;;;;;4.88;85.43;101536.31;1666314;85;20982;-84
2022/11/06 00:31:23;;;;;;;15.45;6.40;;;;;;;4.86;85.36;101540.12;1666041;85;21738;-84
2022/11/06 00:33:52;;;;;;;12.73;6.42;;;;;;;4.84;85.35;101539.52;1678062;84;20971;-84
2022/11/06 00:36:21;;;;;;;13.98;7.08;;;;;;;4.82;85.36;101535.53;1678424;85;21644;-83
2022/11/06 00:38:54;;;;;;;13.50;6.87;;;;;;;4.81;85.42;101536.33;1677526;84;21114;-85
2022/11/06 00:41:21;;;;;;;11.63;6.17;;;;;;;4.82;85.51;101534.61;1676921;85;21077;-86
2022/11/06 00:43:51;;;;;;;11.55;6.20;;;;;;;4.81;85.49;101533.72;1676907;85;21746;-85
2022/11/06 00:46:18;;;;;;;11.95;6.37;;;;;;;4.81;85.55;101531.11;1676831;84;21066;-85
2022/11/06 00:48:45;;;;;;;17.95;8.85;;;;;;;4.82;85.59;101529.39;1677061;84;21632;-87
2022/11/06 00:51:15;;;;;;;13.08;7.03;;;;;;;4.80;85.54;101524.48;1664390;84;21393;-86
2022/11/06 00:53:42;;;;;;;18.25;8.83;;;;;;;4.79;85.67;101513.16;1673498;85;21119;-85
2022/11/06 00:56:14;;;;;;;11.57;6.20;;;;;;;4.80;85.68;101517.97;1673226;85;22094;-84
2022/11/06 00:58:41;;;;;;;11.48;5.97;;;;;;;4.80;85.68;101517.55;1672724;84;21026;-85
2022/11/06 01:01:20;;;;;;;12.47;5.65;;;;;;;4.80;85.64;101520.58;1663832;85;21094;-83
2022/11/06 01:03:57;;;;;;;12.15;6.20;;;;;;;4.79;85.50;101520.09;1637067;87;21320;-84
2022/11/06 01:06:27;;;;;;;10.00;5.95;;;;;;;4.76;85.37;101524.70;1636422;86;21098;-84
2022/11/06 01:08:54;;;;;;;19.73;6.95;;;;;;;4.71;85.27;101519.64;1636825;87;21820;-83
2022/11/06 01:11:24;;;;;;;13.32;6.25;;;;;;;4.65;85.27;101513.64;1661626;86;22106;-85
2022/11/06 01:13:52;;;;;;;18.25;6.53;;;;;;;4.65;85.27;101516.62;1722613;82;21540;-84
2022/11/06 01:16:19;;;;;;;11.28;6.45;;;;;;;4.61;85.29;101509.02;1722481;82;20994;-85
2022/11/06 01:18:46;;;;;;;15.38;6.05;;;;;;;4.60;85.27;101508.95;1732696;81;21564;-86
2022/11/06 01:21:17;;;;;;;13.50;6.03;;;;;;;4.58;85.37;101510.16;1733657;82;21718;-84
2022/11/06 01:23:44;;;;;;;15.23;7.30;;;;;;;4.57;85.33;101508.34;1696366;82;21114;-85
2022/11/06 01:26:12;;;;;;;15.43;6.55;;;;;;;4.58;85.48;101511.84;1733753;82;21069;-84
2022/11/06 01:28:39;;;;;;;17.07;6.58;;;;;;;4.56;85.47;101514.76;1734499;82;21082;-85
2022/11/06 01:31:10;;;;;;;11.60;6.55;;;;;;;4.56;85.39;101509.16;1733462;82;21051;-85
2022/11/06 01:33:37;;;;;;;15.25;6.55;;;;;;;4.53;85.36;101511.58;1733197;81;21826;-86
2022/11/06 01:36:04;;;;;;;13.55;5.97;;;;;;;4.50;85.34;101516.58;1733520;82;21050;-85
2022/11/06 01:38:31;;;;;;;14.85;5.37;;;;;;;4.51;85.44;101514.91;1733518;82;21144;-85
2022/11/06 01:40:58;;;;;;;12.63;5.67;;;;;;;4.50;85.44;101517.89;1733640;82;21123;-84
2022/11/06 01:43:47;;;;;;;13.15;5.85;;;;;;;4.49;85.41;101518.71;1733697;82;21124;-86
2022/11/06 01:46:16;;;;;;;10.28;5.70;;;;;;;4.47;85.35;101521.22;1735431;82;21792;-85
2022/11/06 01:48:48;;;;;;;15.28;6.25;;;;;;;4.44;85.33;101517.11;1751655;81;20981;-85
2022/11/06 01:51:15;;;;;;;10.23;5.70;;;;;;;4.43;85.36;101521.84;1751258;81;21061;-86
2022/11/06 01:53:42;;;;;;;13.35;4.95;;;;;;;4.41;85.27;101525.13;1751336;81;21126;-84
2022/11/06 01:56:10;;;;;;;9.10;5.08;;;;;;;4.39;85.27;101531.59;1751506;81;21089;-84
2022/11/06 01:58:39;;;;;;;10.18;5.03;;;;;;;4.35;85.24;101529.56;1741503;81;21766;-83
2022/11/06 02:01:06;;;;;;;9.28;4.60;;;;;;;4.32;85.15;101527.17;1733287;82;21070;-83
2022/11/06 02:03:34;;;;;;;12.23;4.97;;;;;;;4.30;85.18;101524.49;1733735;82;21611;-83
2022/11/06 02:06:01;;;;;;;12.05;4.92;;;;;;;4.27;85.15;101524.29;1716850;82;21058;-83
2022/11/06 02:08:28;;;;;;;10.23;4.87;;;;;;;4.26;85.26;101527.69;1733468;82;21038;-83
2022/11/06 02:10:55;;;;;;;9.85;5.33;;;;;;;4.24;85.21;101523.70;1723387;82;21724;-83
2022/11/06 02:13:41;;;;;;;9.25;4.67;;;;;;;4.20;85.15;101520.38;1719574;83;21054;-83
2022/11/06 02:16:21;;;;;;;14.03;5.40;;;;;;;4.17;85.09;101525.42;1719485;83;21225;-83
2022/11/06 02:18:59;;;;;;;8.58;5.58;;;;;;;4.16;85.17;101527.92;1718698;83;21581;-83
2022/11/06 02:22:01;;;;;;;8.83;4.80;;;;;;;4.16;85.30;101537.05;1690150;83;20974;-83
2022/11/06 02:24:49;;;;;;;11.35;5.25;;;;;;;4.16;85.40;101529.23;1718728;83;21805;-84
2022/11/06 02:27:17;;;;;;;12.15;4.83;;;;;;;4.14;85.26;101533.03;1719065;83;21074;-84
2022/11/06 02:30:06;;;;;;;12.82;7.67;;;;;;;4.12;85.35;101531.14;1721237;83;21014;-84
2022/11/06 02:32:55;;;;;;;11.03;5.05;;;;;;;4.09;85.34;101528.84;1671945;85;21098;-84
2022/11/06 02:35:48;;;;;;;12.98;5.62;;;;;;;4.07;85.43;101525.63;1671830;85;21501;-83
2022/11/06 02:38:31;;;;;;;13.58;5.58;;;;;;;4.08;85.56;101528.33;1671163;85;21798;-84
2022/11/06 02:41:02;;;;;;;7.03;5.00;;;;;;;4.07;85.58;101526.55;1670375;85;25299;-84
2022/11/06 02:43:41;;;;;;;12.75;5.20;;;;;;;4.03;85.46;101525.83;1649879;85;20996;-85
2022/11/06 02:46:19;;;;;;;11.18;5.25;;;;;;;4.00;85.46;101523.45;1671983;85;21501;-84
2022/11/06 02:48:50;;;;;;;9.35;5.03;;;;;;;3.99;85.47;101526.85;1649929;85;21567;-84
2022/11/06 02:51:23;;;;;;;11.07;5.63;;;;;;;3.97;85.46;101528.05;1673178;85;21019;-83
2022/11/06 02:53:49;;;;;;;12.43;4.85;;;;;;;3.96;85.48;101527.95;1673206;85;21839;-84
2022/11/06 02:56:20;;;;;;;11.93;4.83;;;;;;;3.92;85.38;101522.94;1673478;85;21478;-84
2022/11/06 02:58:51;;;;;;;12.80;5.83;;;;;;;3.91;85.43;101522.45;1671332;85;21027;-85
2022/11/06 03:01:46;;;;;;;8.38;5.00;;;;;;;3.89;85.42;101515.84;1667434;85;21049;-85
2022/11/06 03:04:34;;;;;;;10.80;4.80;;;;;;;3.88;85.46;101521.84;1667425;85;21725;-85
2022/11/06 03:07:09;;;;;;;8.65;4.58;;;;;;;3.91;85.62;101518.55;1677060;85;21035;-84
2022/11/06 03:09:36;;;;;;;9.75;5.15;;;;;;;3.91;85.68;101512.45;1684152;85;21003;-84
2022/11/06 03:12:24;;;;;;;9.78;4.60;;;;;;;3.92;85.75;101506.00;1685327;85;21528;-85
2022/11/06 03:15:25;;;;;;;8.75;4.97;;;;;;;3.94;85.80;101510.02;1685230;84;20916;-87
2022/11/06 03:18:00;;;;;;;10.95;5.17;;;;;;;3.97;85.87;101507.63;1684718;83;21737;-87
2022/11/06 03:20:35;;;;;;;8.10;5.08;;;;;;;3.98;85.88;101516.84;1685290;84;20983;-86
2022/11/06 03:23:25;;;;;;;11.48;5.22;;;;;;;4.00;85.89;101518.25;1661102;85;21522;-86
2022/11/06 03:25:57;;;;;;;15.90;5.58;;;;;;;4.00;85.90;101512.63;1685242;83;20976;-86
2022/11/06 03:28:31;;;;;;;9.13;5.42;;;;;;;4.01;85.81;101513.52;1684740;84;21019;-86
2022/11/06 03:31:01;;;;;;;12.95;6.25;;;;;;;3.98;85.83;101511.63;1677347;85;21716;-86
2022/11/06 03:33:35;;;;;;;14.80;7.55;;;;;;;3.99;85.89;101512.52;1685155;84;20983;-86
2022/11/06 03:36:10;;;;;;;17.00;8.83;;;;;;;4.02;85.97;101516.64;1700223;84;21007;-86
2022/11/06 03:38:40;;;;;;;16.70;9.00;;;;;;;4.04;86.10;101518.53;1685209;85;21930;-86
2022/11/06 03:41:24;;;;;;;17.80;9.60;;;;;;;4.07;86.21;101519.11;1684270;84;21089;-85
2022/11/06 03:43:52;;;;;;;21.05;13.10;;;;;;;4.08;86.26;101519.21;1683525;84;23250;-84
2022/11/06 03:46:23;;;;;;;17.82;9.48;;;;;;;4.11;86.31;101528.95;1677170;85;21015;-86
2022/11/06 03:48:59;;;;;;;14.20;8.93;;;;;;;4.12;86.32;101533.34;1656180;85;21410;-87
2022/11/06 03:51:45;;;;;;;15.75;9.50;;;;;;;4.14;86.38;101530.84;1664889;85;21011;-86
2022/11/06 03:54:25;;;;;;;16.27;9.58;;;;;;;4.14;86.38;101533.03;1679652;85;21047;-86
2022/11/06 03:57:00;;;;;;;17.32;11.25;;;;;;;4.15;86.36;101533.55;1688493;83;21715;-87
2022/11/06 03:59:30;;;;;;;12.90;8.15;;;;;;;4.15;86.37;101538.76;1714424;82;21065;-84
2022/11/06 04:01:58;;;;;;;13.70;8.88;;;;;;;4.16;86.39;101538.34;1708062;83;21129;-83
2022/11/06 04:04:44;;;;;;;14.58;8.68;;;;;;;4.17;86.43;101546.67;1708287;83;22208;-84
2022/11/06 04:07:17;;;;;;;15.13;10.48;;;;;;;4.17;86.44;101547.98;1708395;83;21086;-83
2022/11/06 04:15:21;;;;;;;17.00;11.08;;;;;;;4.22;86.42;101543.56;1708520;83;21069;-86
2022/11/06 04:17:47;;;;;;;17.05;11.90;;;;;;;4.22;86.39;101546.55;1685406;83;21142;-86
2022/11/06 04:23:26;;;;;;;29.67;17.82;;;;;;;4.21;86.36;101538.25;1708399;83;21866;-83
2022/11/06 04:28:54;;;;;;;28.67;17.87;;;;;;;4.19;86.23;101533.34;1708431;83;21129;-84
2022/11/06 04:31:38;;;;;;;19.15;12.75;;;;;;;4.16;86.22;101526.20;1711381;83;21065;-85
2022/11/06 04:34:23;;;;;;;31.07;17.55;;;;;;;4.15;86.24;101522.20;1713579;82;21065;-84
2022/11/06 04:37:00;;;;;;;43.65;24.00;;;;;;;4.13;86.18;101514.69;1713662;82;21770;-85
2022/11/06 04:40:14;;;;;;;37.00;21.87;;;;;;;4.12;86.22;101511.60;1713539;82;21154;-86
2022/11/06 04:43:04;;;;;;;68.97;36.10;;;;;;;4.12;86.26;101514.21;1639447;86;21157;-87
2022/11/06 04:45:35;;;;;;;68.10;27.85;;;;;;;4.09;86.24;101508.00;1711583;82;21158;-87
2022/11/06 04:48:03;;;;;;;120.08;45.92;;;;;;;4.07;86.18;101508.31;1713578;83;21549;-87
2022/11/06 04:50:31;;;;;;;87.15;37.20;;;;;;;4.04;86.08;101510.71;1713411;82;21731;-85
2022/11/06 04:52:58;;;;;;;81.65;35.38;;;;;;;4.00;85.99;101510.44;1713417;82;21639;-85
2022/11/06 04:55:25;;;;;;;59.73;28.20;;;;;;;3.97;85.96;101510.23;1713369;83;21073;-84
2022/11/06 04:57:52;;;;;;;148.72;59.63;;;;;;;3.93;85.94;101510.42;1692803;83;21141;-87
2022/11/06 05:00:19;;;;;;;107.65;43.55;;;;;;;3.91;85.84;101512.45;1709531;83;21531;-86
2022/11/06 05:02:46;;;;;;;106.95;46.83;;;;;;;3.87;85.86;101512.65;1714890;82;21697;-87
2022/11/06 05:05:13;;;;;;;86.28;40.63;;;;;;;3.83;85.83;101506.72;1715019;83;21073;-87
2022/11/06 05:07:40;;;;;;;65.35;33.33;;;;;;;3.82;85.78;101517.95;1714745;83;21113;-87
2022/11/06 05:10:07;;;;;;;47.35;23.98;;;;;;;3.75;85.63;101513.15;1726915;81;21049;-87
2022/11/06 05:12:34;;;;;;;28.70;13.95;;;;;;;3.69;85.63;101510.64;1704985;82;21104;-87
2022/11/06 05:15:01;;;;;;;23.92;11.65;;;;;;;3.66;85.59;101514.37;1732318;82;21751;-85
2022/11/06 05:17:28;;;;;;;22.80;11.73;;;;;;;3.59;85.46;101515.17;1735998;80;21085;-85
2022/11/06 05:19:55;;;;;;;21.40;11.12;;;;;;;3.54;85.47;101517.87;1748853;81;20966;-85
2022/11/06 05:25:08;;;;;;;24.05;13.62;;;;;;;3.45;85.57;101525.95;1748950;81;21049;-84
2022/11/06 05:27:34;;;;;;;28.20;14.23;;;;;;;3.40;85.58;101529.58;1748992;81;22639;-85
2022/11/06 05:30:01;;;;;;;20.70;11.88;;;;;;;3.37;85.59;101530.66;1748926;81;21386;-84
2022/11/06 05:32:29;;;;;;;22.58;13.00;;;;;;;3.30;85.59;101534.57;1748970;81;21462;-86
2022/11/06 05:34:56;;;;;;;20.55;11.40;;;;;;;3.25;85.63;101535.95;1748754;81;21101;-86
2022/11/06 05:37:23;;;;;;;16.57;10.58;;;;;;;3.26;85.73;101542.05;1749183;81;21109;-85
2022/11/06 05:39:50;;;;;;;12.95;8.50;;;;;;;3.24;85.79;101544.95;1748868;81;21758;-85
2022/11/06 05:42:17;;;;;;;11.00;7.50;;;;;;;3.23;85.75;101552.23;1748771;81;21576;-86
2022/11/06 05:44:43;;;;;;;12.00;7.42;;;;;;;3.20;85.77;101558.16;1737866;81;21069;-86
2022/11/06 05:47:10;;;;;;;14.63;8.20;;;;;;;3.19;85.85;101558.97;1740187;82;21471;-85
2022/11/06 05:49:37;;;;;;;10.53;7.10;;;;;;;3.18;85.81;101553.25;1740247;82;21066;-85
2022/11/06 05:52:04;;;;;;;16.90;7.92;;;;;;;3.17;85.83;101551.43;1740177;82;21757;-85
2022/11/06 05:54:30;;;;;;;16.32;9.40;;;;;;;3.17;85.81;101555.73;1740181;82;21057;-85
2022/11/06 05:56:57;;;;;;;13.55;8.15;;;;;;;3.16;85.83;101555.25;1739946;82;21576;-84
2022/11/06 05:59:24;;;;;;;13.25;8.48;;;;;;;3.15;85.85;101550.84;1733631;82;21519;-92
2022/11/06 06:01:51;;;;;;;11.57;7.15;;;;;;;3.14;85.83;101552.55;1726652;83;21534;-87
2022/11/06 06:04:18;;;;;;;11.40;6.62;;;;;;;3.14;85.85;101552.55;1726694;83;21820;-87
2022/11/06 06:06:45;;;;;;;10.60;6.60;;;;;;;3.14;85.81;101554.25;1726926;83;21169;-87
2022/11/06 06:09:11;;;;;;;10.05;6.67;;;;;;;3.14;85.89;101557.75;1729279;82;21073;-87
2022/11/06 06:11:38;;;;;;;10.00;6.58;;;;;;;3.15;85.79;101554.73;1718600;82;21108;-86
2022/11/06 06:14:05;;;;;;;10.63;6.80;;;;;;;3.15;85.80;101558.64;1742714;81;21527;-86
2022/11/06 06:16:31;;;;;;;7.90;6.15;;;;;;;3.16;85.85;101561.76;1742903;82;22527;-86
2022/11/06 06:18:58;;;;;;;8.53;6.20;;;;;;;3.18;85.84;101560.16;1743066;81;21034;-86
2022/11/06 06:21:25;;;;;;;14.18;7.25;;;;;;;3.21;85.89;101567.78;1743285;81;21552;-86
2022/11/06 06:23:52;;;;;;;10.53;6.75;;;;;;;3.26;86.02;101566.36;1741817;82;21649;-86
2022/11/06 06:26:19;;;;;;;8.58;6.22;;;;;;;3.34;86.18;101564.68;1734980;81;22301;-85
2022/11/06 06:28:48;;;;;;;10.48;7.50;;;;;;;3.42;86.18;101564.81;1734702;82;21777;-86
2022/11/06 06:31:15;;;;;;;15.63;10.05;;;;;;;3.46;86.02;101562.50;1733388;82;21659;-86
2022/11/06 06:33:42;;;;;;;28.92;16.17;;;;;;;3.50;86.00;101561.91;1735573;82;21058;-85
2022/11/06 06:36:09;;;;;;;87.70;42.20;;;;;;;3.60;86.17;101569.91;1695591;83;21211;-85
2022/11/06 06:38:36;;;;;;;62.67;33.18;;;;;;;3.69;86.25;101565.31;1696755;83;21065;-86
2022/11/06 06:41:04;;;;;;;88.70;41.10;;;;;;;3.79;86.18;101568.16;1704372;84;21746;-86
2022/11/06 06:43:30;;;;;;;114.50;49.90;;;;;;;3.87;86.12;101563.03;1716334;82;21059;-86
2022/11/06 06:45:59;;;;;;;155.15;67.10;;;;;;;3.99;86.20;101571.13;1734880;82;21070;-85
2022/11/06 06:48:26;;;;;;;140.28;58.15;;;;;;;4.12;86.26;101567.21;1736586;82;21011;-86
2022/11/06 06:51:01;;;;;;;145.25;59.70;;;;;;;4.29;86.47;101563.96;1735048;82;21168;-87
2022/11/06 06:53:28;;;;;;;56.30;26.90;;;;;;;4.47;86.48;101566.84;1734820;82;21753;-87
2022/11/06 06:55:59;;;;;;;62.05;27.32;;;;;;;4.60;86.34;101566.31;1734933;82;21054;-88
2022/11/06 06:58:28;;;;;;;28.85;15.35;;;;;;;4.74;86.49;101560.23;1723442;82;22417;-88
2022/11/06 07:01:01;;;;;;;21.95;11.20;;;;;;;4.91;86.49;101558.64;1690183;84;21121;-87
2022/11/06 07:03:28;;;;;;;18.62;10.40;;;;;;;5.05;86.40;101559.50;1688059;84;21387;-87
2022/11/06 07:05:56;;;;;;;14.28;8.90;;;;;;;5.19;86.50;101557.70;1667458;85;21794;-87
2022/11/06 07:08:23;;;;;;;13.88;8.90;;;;;;;5.27;86.08;101557.75;1669782;84;21083;-88
2022/11/06 07:10:50;;;;;;;11.95;8.95;;;;;;;5.29;85.87;101561.76;1685636;84;20947;-87
2022/11/06 07:13:17;;;;;;;13.30;8.60;;;;;;;5.29;85.73;101566.56;1684910;84;21743;-87
2022/11/06 07:15:43;;;;;;;12.68;8.60;;;;;;;5.27;85.71;101564.27;1685418;83;21568;-87
2022/11/06 07:18:10;;;;;;;26.62;13.50;;;;;;;5.31;85.63;101574.49;1693365;82;21735;-87
2022/11/06 07:20:38;;;;;;;19.75;10.48;;;;;;;5.29;85.51;101572.20;1696027;84;21773;-87
2022/11/06 07:23:06;;;;;;;25.08;10.88;;;;;;;5.28;85.52;101575.64;1696464;84;21068;-87
2022/11/06 07:25:33;;;;;;;18.32;9.90;;;;;;;5.24;85.36;101578.05;1698140;84;21073;-87
2022/11/06 07:28:02;;;;;;;27.95;13.95;;;;;;;5.22;85.33;101581.39;1685496;85;21145;-87
2022/11/06 07:30:29;;;;;;;26.12;12.47;;;;;;;5.19;85.35;101574.26;1665297;86;21824;-87
2022/11/06 07:32:56;;;;;;;21.07;13.22;;;;;;;5.21;85.43;101579.16;1666232;86;21068;-87
2022/11/06 07:35:22;;;;;;;21.35;12.43;;;;;;;5.21;85.43;101578.27;1651198;86;21127;-87
2022/11/06 07:37:49;;;;;;;29.32;12.90;;;;;;;5.20;85.47;101581.67;1669179;86;21575;-87
2022/11/06 07:40:16;;;;;;;25.55;13.32;;;;;;;5.21;85.59;101579.16;1666545;86;21082;-87
2022/11/06 07:42:43;;;;;;;25.77;13.03;;;;;;;5.24;85.69;101580.66;1645555;86;21719;-87
2022/11/06 07:45:10;;;;;;;21.00;11.63;;;;;;;5.25;85.63;101581.55;1644192;85;21126;-86
2022/11/06 07:47:37;;;;;;;16.77;9.05;;;;;;;5.25;85.63;101581.55;1666148;84;21052;-85
2022/11/06 07:50:04;;;;;;;17.62;10.32;;;;;;;5.28;85.71;101585.66;1743649;82;21546;-88
2022/11/06 07:52:32;;;;;;;13.43;8.45;;;;;;;5.32;85.82;101582.42;1743825;81;21077;-89
2022/11/06 07:54:59;;;;;;;10.85;8.38;;;;;;;5.32;85.87;101570.67;1720064;82;21840;-88
2022/11/06 07:57:26;;;;;;;11.40;7.85;;;;;;;5.43;86.00;101581.34;1681574;84;21124;-89
2022/11/06 07:59:53;;;;;;;13.65;7.92;;;;;;;5.49;86.05;101581.22;1698003;84;21123;-85
2022/11/06 08:02:20;;;;;;;11.53;8.83;;;;;;;5.55;86.10;101582.46;1697991;84;21072;-90
2022/11/06 08:04:47;;;;;;;10.78;7.67;;;;;;;5.61;86.07;101574.09;1698316;84;21080;-85
2022/11/06 08:07:13;;;;;;;9.70;8.33;;;;;;;5.68;86.06;101579.27;1698312;83;21749;-83
2022/11/06 08:09:40;;;;;;;12.33;8.80;;;;;;;5.75;86.13;101574.91;1706921;82;21069;-84
2022/11/06 08:12:07;;;;;;;13.50;9.28;;;;;;;5.82;86.18;101581.88;1711094;82;21160;-90
2022/11/06 08:14:34;;;;;;;10.90;8.80;;;;;;;5.88;86.16;101577.41;1743132;82;21019;-85
2022/11/06 08:17:01;;;;;;;13.60;9.28;;;;;;;5.95;86.09;101579.59;1743320;81;21058;-85
2022/11/06 08:19:28;;;;;;;15.38;9.65;;;;;;;6.03;86.14;101580.92;1738590;82;21715;-87
2022/11/06 08:21:55;;;;;;;14.78;9.15;;;;;;;6.12;86.08;101583.16;1738863;82;21068;-85
2022/11/06 08:24:21;;;;;;;14.43;9.10;;;;;;;6.18;86.07;101575.66;1708349;82;21530;-85
2022/11/06 08:26:48;;;;;;;16.12;11.05;;;;;;;6.27;86.00;101580.89;1738717;82;21155;-85
2022/11/06 08:29:15;;;;;;;11.90;9.48;;;;;;;6.32;86.00;101587.29;1738794;82;21084;-85
2022/11/06 08:31:42;;;;;;;13.78;9.60;;;;;;;6.40;85.96;101581.68;1738849;82;21732;-85
2022/11/06 08:34:09;;;;;;;12.75;9.28;;;;;;;6.49;85.92;101585.60;1738874;82;21051;-85
2022/11/06 08:36:41;;;;;;;12.45;9.60;;;;;;;6.54;85.79;101586.34;1738981;82;21689;-85
2022/11/06 08:39:08;;;;;;;13.68;9.43;;;;;;;6.60;85.79;101584.05;1737155;82;22077;-85
2022/11/06 08:41:35;;;;;;;13.85;9.48;;;;;;;6.68;85.68;101587.50;1730931;82;21503;-86
2022/11/06 08:44:01;;;;;;;13.15;8.88;;;;;;;6.74;85.58;101590.05;1731269;82;21786;-85
2022/11/06 08:46:28;;;;;;;13.30;9.23;;;;;;;6.79;85.48;101585.98;1734203;81;21532;-85
2022/11/06 08:48:55;;;;;;;15.50;9.85;;;;;;;6.86;85.48;101587.19;1738593;82;21541;-86
2022/11/06 08:51:21;;;;;;;14.55;10.68;;;;;;;6.92;85.46;101596.66;1738635;82;21618;-88
2022/11/06 08:53:48;;;;;;;14.83;10.85;;;;;;;6.98;85.60;101598.33;1736392;82;21198;-87
2022/11/06 08:56:16;;;;;;;16.27;11.20;;;;;;;7.08;85.59;101589.66;1736709;82;22530;-88
2022/11/06 08:58:43;;;;;;;14.07;10.98;;;;;;;7.14;85.62;101589.96;1736425;82;21035;-88
2022/11/06 09:01:12;;;;;;;17.10;10.98;;;;;;;7.21;85.49;101586.84;1735275;82;21034;-88
2022/11/06 09:03:41;;;;;;;15.63;10.58;;;;;;;7.25;85.27;101589.22;1723117;82;21539;-91
2022/11/06 09:06:08;;;;;;;20.15;10.40;;;;;;;7.30;85.24;101586.02;1720342;82;21098;-88
2022/11/06 09:08:35;;;;;;;16.90;11.20;;;;;;;7.38;85.21;101587.30;1730882;82;22416;-88
2022/11/06 09:11:06;;;;;;;17.70;10.93;;;;;;;7.45;85.07;101588.91;1724542;82;21510;-87
2022/11/06 09:13:36;;;;;;;14.63;9.85;;;;;;;7.49;84.94;101581.31;1725003;82;21144;-88
2022/11/06 09:16:02;;;;;;;14.55;9.85;;;;;;;7.53;84.88;101581.95;1724251;82;21072;-87
2022/11/06 09:18:30;;;;;;;12.23;9.20;;;;;;;7.59;84.81;101582.67;1725769;81;21065;-90
2022/11/06 09:20:57;;;;;;;15.65;10.03;;;;;;;7.63;84.72;101582.41;1728010;82;23007;-87
2022/11/06 09:23:24;;;;;;;12.25;9.65;;;;;;;7.69;84.77;101594.08;1724055;82;21072;-86
2022/11/06 09:25:50;;;;;;;17.30;11.83;;;;;;;7.77;84.73;101594.08;1722141;81;21051;-87
2022/11/06 09:28:17;;;;;;;15.32;11.00;;;;;;;7.85;84.72;101593.14;1723469;82;21545;-89
2022/11/06 09:30:46;;;;;;;14.93;10.03;;;;;;;7.93;84.71;101589.59;1719304;82;21554;-91
2022/11/06 09:33:13;;;;;;;14.55;10.00;;;;;;;7.99;84.59;101589.87;1721980;82;22424;-91
2022/11/06 09:35:40;;;;;;;20.02;13.60;;;;;;;8.02;84.42;101576.04;1731816;82;21040;-92
2022/11/06 09:38:10;;;;;;;16.67;11.33;;;;;;;8.06;84.27;101580.18;1723921;82;21089;-91
2022/11/06 09:40:50;;;;;;;16.52;12.15;;;;;;;8.10;84.26;101575.56;1723903;82;21356;-90
2022/11/06 09:43:49;;;;;;;15.68;10.90;;;;;;;8.14;84.16;101571.37;1718378;82;21022;-90
2022/11/06 09:46:29;;;;;;;16.10;10.98;;;;;;;8.18;84.11;101568.06;1724484;82;22524;-87
2022/11/06 09:49:07;;;;;;;18.82;12.25;;;;;;;8.23;84.08;101569.61;1682683;82;21317;-90
2022/11/06 09:51:41;;;;;;;17.17;13.40;;;;;;;8.25;84.03;101569.27;1713824;82;21085;-91
2022/11/06 09:54:22;;;;;;;18.40;13.38;;;;;;;8.28;83.96;101565.48;1713150;82;21058;-91
2022/11/06 09:56:50;;;;;;;17.07;12.03;;;;;;;8.32;83.93;101564.80;1720989;83;21081;-91
2022/11/06 09:59:18;;;;;;;17.50;12.47;;;;;;;8.32;83.87;101555.20;1724108;82;21776;-90
2022/11/06 10:01:55;;;;;;;18.75;13.40;;;;;;;8.37;83.77;101558.94;1713006;81;21076;-88
2022/11/06 10:04:45;;;;;;;21.48;13.83;;;;;;;8.43;83.88;101552.20;1693103;83;22081;-89
2022/11/06 10:07:32;;;;;;;19.48;13.80;;;;;;;8.48;83.83;101556.83;1692942;83;21085;-87
2022/11/06 10:10:00;;;;;;;16.15;11.88;;;;;;;8.56;83.92;101551.97;1687836;84;21125;-88
2022/11/06 10:13:06;;;;;;;14.73;10.63;;;;;;;8.65;83.86;101543.59;1686289;84;21537;-88
2022/11/06 10:16:09;;;;;;;20.85;10.95;;;;;;;8.70;83.74;101541.66;1681404;84;21490;-88
2022/11/06 10:19:10;;;;;;;19.27;9.78;;;;;;;8.79;83.69;101540.30;1675396;84;21413;-88
2022/11/06 10:21:49;;;;;;;14.65;9.00;;;;;;;8.86;83.49;101530.14;1687143;83;21131;-87
2022/11/06 10:24:40;;;;;;;13.40;8.35;;;;;;;8.90;83.33;101529.44;1695422;84;21133;-87
2022/11/06 10:27:15;;;;;;;10.50;7.45;;;;;;;8.97;83.31;101524.02;1692679;84;21755;-88
2022/11/06 10:30:10;;;;;;;14.47;7.67;;;;;;;9.02;83.14;101523.81;1672957;84;21529;-88
2022/11/06 10:33:04;;;;;;;11.73;7.55;;;;;;;9.07;83.06;101518.36;1692765;83;21150;-87
2022/11/06 10:35:43;;;;;;;9.30;7.03;;;;;;;9.14;82.96;101522.13;1696629;84;21137;-90
2022/11/06 10:38:14;;;;;;;9.53;7.45;;;;;;;9.10;82.82;101499.20;1690190;84;21743;-87
2022/11/06 10:40:44;;;;;;;12.63;7.22;;;;;;;9.25;82.44;101519.97;1694074;83;21767;-86
2022/11/06 10:43:54;;;;;;;13.05;7.80;;;;;;;9.28;82.28;101520.12;1681625;84;21566;-88
2022/11/06 10:46:38;;;;;;;12.07;7.12;;;;;;;9.33;82.35;101509.39;1694165;83;21146;-86
2022/11/06 10:49:30;;;;;;;14.28;6.42;;;;;;;9.47;82.31;101509.53;1654632;85;21082;-86
2022/11/06 10:52:18;;;;;;;10.45;6.58;;;;;;;9.98;82.79;101505.44;1648552;85;21104;-87
2022/11/06 10:55:19;;;;;;;13.43;8.15;;;;;;;10.18;81.90;101503.59;1636669;85;22000;-90
2022/11/06 10:57:50;;;;;;;14.25;6.95;;;;;;;10.09;81.26;101501.06;1625175;88;21098;-86
2022/11/06 11:00:17;;;;;;;9.15;6.33;;;;;;;10.04;81.16;101498.70;1606232;86;21105;-87
2022/11/06 11:02:48;;;;;;;9.83;5.95;;;;;;;10.03;80.95;101499.95;1658685;83;21419;-84
2022/11/06 11:05:17;;;;;;;10.68;6.47;;;;;;;10.00;80.91;101489.30;1673658;84;21122;-85
2022/11/06 11:07:46;;;;;;;11.90;6.65;;;;;;;9.98;80.73;101481.77;1668427;84;22007;-87
2022/11/06 11:10:27;;;;;;;11.18;5.92;;;;;;;9.97;80.73;101478.67;1662430;84;21014;-88
2022/11/06 11:12:56;;;;;;;9.18;6.00;;;;;;;9.99;80.87;101472.62;1673126;84;21121;-87
2022/11/06 11:15:25;;;;;;;9.75;5.50;;;;;;;10.02;80.79;101471.44;1677864;85;21127;-87
2022/11/06 11:18:22;;;;;;;10.48;5.72;;;;;;;10.05;80.74;101464.08;1668246;83;21093;-88
2022/11/06 11:20:50;;;;;;;9.28;5.30;;;;;;;10.07;80.55;101461.97;1658340;85;21793;-87
2022/11/06 11:23:23;;;;;;;10.25;6.22;;;;;;;10.06;80.35;101464.53;1679075;85;21183;-87
2022/11/06 11:25:52;;;;;;;10.38;5.53;;;;;;;10.05;80.31;101464.97;1678863;85;21654;-88
2022/11/06 11:28:32;;;;;;;13.88;6.45;;;;;;;10.05;80.18;101460.13;1677904;85;21368;-87
2022/11/06 11:31:15;;;;;;;11.85;7.20;;;;;;;10.06;80.10;101452.70;1677467;85;21078;-87
2022/11/06 11:33:52;;;;;;;12.17;6.80;;;;;;;10.06;80.06;101450.98;1649866;85;21931;-87
2022/11/06 11:36:19;;;;;;;13.60;7.00;;;;;;;10.07;80.02;101443.56;1648763;85;21105;-88
2022/11/06 11:38:46;;;;;;;13.70;8.73;;;;;;;10.08;79.98;101443.16;1649181;86;21078;-88
2022/11/06 11:41:23;;;;;;;21.17;11.03;;;;;;;10.12;79.98;101431.91;1649247;86;21589;-87
2022/11/06 11:44:17;;;;;;;16.75;10.72;;;;;;;10.13;79.87;101432.38;1649237;86;21079;-88
2022/11/06 11:46:53;;;;;;;17.05;9.28;;;;;;;10.15;79.69;101439.89;1649559;86;22613;-88
2022/11/06 11:49:30;;;;;;;17.65;10.28;;;;;;;10.15;79.69;101440.33;1649092;86;21087;-87
2022/11/06 11:51:59;;;;;;;15.53;8.35;;;;;;;10.14;79.61;101436.81;1649366;85;21079;-87
2022/11/06 11:54:31;;;;;;;14.25;7.12;;;;;;;10.16;79.62;101428.98;1650859;85;21109;-87
2022/11/06 11:57:12;;;;;;;11.43;5.28;;;;;;;10.18;79.55;101425.98;1649407;86;22159;-86
2022/11/06 11:59:45;;;;;;;11.25;5.30;;;;;;;10.21;79.46;101420.81;1648860;86;21717;-87
2022/11/06 12:02:28;;;;;;;16.27;5.47;;;;;;;10.25;79.39;101431.95;1649300;86;21073;-88